sensor_id;sensor_type;location;lat;lon;timestamp;P1;durP1;ratioP1;P2;durP2;ratioP2
7917;SDS011;4004;42.624;23.386;2022-10-26T00:00:42;11.93;;;4.47;;
7917;SDS011;4004;42.624;23.386;2022-10-26T00:03:09;11.37;;;5.83;;
7917;SDS011;4004;42.624;23.386;2022-10-26T00:05:36;14.37;;;5.07;;
7917;SDS011;4004;42.624;23.386;2022-10-26T00:08:03;10.93;;;5.10;;
7917;SDS011;4004;42.624;23.386;2022-10-26T00:10:30;10.73;;;4.83;;
7917;SDS011;4004;42.624;23.386;2022-10-26T00:12:58;15.57;;;5.03;;
7917;SDS011;4004;42.624;23.386;2022-10-26T00:15:27;8.30;;;4.67;;
7917;SDS011;4004;42.624;23.386;2022-10-26T00:17:54;13.67;;;5.17;;
7917;SDS011;4004;42.624;23.386;2022-10-26T00:20:21;8.93;;;4.30;;
7917;SDS011;4004;42.624;23.386;2022-10-26T00:22:48;13.53;;;4.73;;
7917;SDS011;4004;42.624;23.386;2022-10-26T00:25:15;8.80;;;5.23;;
7917;SDS011;4004;42.624;23.386;2022-10-26T00:27:41;10.37;;;4.70;;
7917;SDS011;4004;42.624;23.386;2022-10-26T00:30:08;13.37;;;4.97;;
7917;SDS011;4004;42.624;23.386;2022-10-26T00:32:37;9.00;;;4.23;;
7917;SDS011;4004;42.624;23.386;2022-10-26T00:35:04;8.30;;;4.30;;
7917;SDS011;4004;42.624;23.386;2022-10-26T00:37:31;11.00;;;4.57;;
7917;SDS011;4004;42.624;23.386;2022-10-26T00:39:57;11.33;;;4.40;;
7917;SDS011;4004;42.624;23.386;2022-10-26T00:42:24;8.13;;;4.97;;
7917;SDS011;4004;42.624;23.386;2022-10-26T00:44:58;8.50;;;4.83;;
7917;SDS011;4004;42.624;23.386;2022-10-26T00:47:28;13.10;;;4.60;;
7917;SDS011;4004;42.624;23.386;2022-10-26T00:50:02;10.60;;;4.47;;
7917;SDS011;4004;42.624;23.386;2022-10-26T00:52:33;9.20;;;4.20;;
7917;SDS011;4004;42.624;23.386;2022-10-26T00:55:00;5.47;;;3.70;;
7917;SDS011;4004;42.624;23.386;2022-10-26T00:57:27;7.57;;;4.20;;
7917;SDS011;4004;42.624;23.386;2022-10-26T00:59:54;9.57;;;4.40;;
7917;SDS011;4004;42.624;23.386;2022-10-26T01:02:23;11.70;;;4.20;;
7917;SDS011;4004;42.624;23.386;2022-10-26T01:04:50;5.87;;;4.40;;
7917;SDS011;4004;42.624;23.386;2022-10-26T01:07:20;10.80;;;5.00;;
7917;SDS011;4004;42.624;23.386;2022-10-26T01:09:47;9.30;;;4.20;;
7917;SDS011;4004;42.624;23.386;2022-10-26T01:12:14;12.23;;;4.20;;
7917;SDS011;4004;42.624;23.386;2022-10-26T01:14:41;10.43;;;4.03;;
7917;SDS011;4004;42.624;23.386;2022-10-26T01:17:11;6.77;;;3.97;;
7917;SDS011;4004;42.624;23.386;2022-10-26T01:22:48;13.07;;;4.07;;
7917;SDS011;4004;42.624;23.386;2022-10-26T01:25:26;9.93;;;3.90;;
7917;SDS011;4004;42.624;23.386;2022-10-26T01:28:06;6.60;;;3.83;;
7917;SDS011;4004;42.624;23.386;2022-10-26T01:30:46;9.43;;;4.57;;
7917;SDS011;4004;42.624;23.386;2022-10-26T01:33:21;5.73;;;4.23;;
7917;SDS011;4004;42.624;23.386;2022-10-26T01:36:00;11.00;;;4.30;;
7917;SDS011;4004;42.624;23.386;2022-10-26T01:38:32;12.83;;;4.67;;
7917;SDS011;4004;42.624;23.386;2022-10-26T01:41:07;7.03;;;4.33;;
7917;SDS011;4004;42.624;23.386;2022-10-26T01:43:39;9.13;;;5.07;;
7917;SDS011;4004;42.624;23.386;2022-10-26T01:46:10;13.67;;;4.80;;
7917;SDS011;4004;42.624;23.386;2022-10-26T01:48:38;13.20;;;5.40;;
7917;SDS011;4004;42.624;23.386;2022-10-26T01:51:07;12.60;;;4.77;;
7917;SDS011;4004;42.624;23.386;2022-10-26T01:53:40;11.87;;;5.40;;
7917;SDS011;4004;42.624;23.386;2022-10-26T01:56:10;13.40;;;5.17;;
7917;SDS011;4004;42.624;23.386;2022-10-26T01:58:47;16.57;;;4.90;;
7917;SDS011;4004;42.624;23.386;2022-10-26T02:01:34;14.00;;;4.60;;
7917;SDS011;4004;42.624;23.386;2022-10-26T02:04:19;11.90;;;4.40;;
7917;SDS011;4004;42.624;23.386;2022-10-26T02:06:58;10.80;;;4.50;;
7917;SDS011;4004;42.624;23.386;2022-10-26T02:09:31;13.77;;;4.70;;
7917;SDS011;4004;42.624;23.386;2022-10-26T02:12:04;9.80;;;4.90;;
7917;SDS011;4004;42.624;23.386;2022-10-26T02:14:38;13.93;;;5.40;;
7917;SDS011;4004;42.624;23.386;2022-10-26T02:17:15;8.07;;;4.57;;
7917;SDS011;4004;42.624;23.386;2022-10-26T02:19:49;10.80;;;5.10;;
7917;SDS011;4004;42.624;23.386;2022-10-26T02:22:21;8.80;;;4.93;;
7917;SDS011;4004;42.624;23.386;2022-10-26T02:24:51;12.17;;;5.60;;
7917;SDS011;4004;42.624;23.386;2022-10-26T02:27:20;7.80;;;5.17;;
7917;SDS011;4004;42.624;23.386;2022-10-26T02:29:50;13.20;;;6.93;;
7917;SDS011;4004;42.624;23.386;2022-10-26T02:32:21;10.30;;;5.97;;
7917;SDS011;4004;42.624;23.386;2022-10-26T02:34:50;18.23;;;7.33;;
7917;SDS011;4004;42.624;23.386;2022-10-26T02:37:19;11.80;;;7.70;;
7917;SDS011;4004;42.624;23.386;2022-10-26T02:39:48;13.23;;;7.80;;
7917;SDS011;4004;42.624;23.386;2022-10-26T02:42:18;18.53;;;7.70;;
7917;SDS011;4004;42.624;23.386;2022-10-26T02:44:45;15.30;;;7.83;;
7917;SDS011;4004;42.624;23.386;2022-10-26T02:47:16;16.50;;;8.13;;
7917;SDS011;4004;42.624;23.386;2022-10-26T02:49:46;16.93;;;7.73;;
7917;SDS011;4004;42.624;23.386;2022-10-26T02:52:14;15.67;;;7.73;;
7917;SDS011;4004;42.624;23.386;2022-10-26T02:54:49;12.97;;;8.00;;
7917;SDS011;4004;42.624;23.386;2022-10-26T02:57:19;13.63;;;6.70;;
7917;SDS011;4004;42.624;23.386;2022-10-26T02:59:50;12.07;;;6.03;;
7917;SDS011;4004;42.624;23.386;2022-10-26T03:02:18;10.47;;;6.20;;
7917;SDS011;4004;42.624;23.386;2022-10-26T03:04:48;15.47;;;6.20;;
7917;SDS011;4004;42.624;23.386;2022-10-26T03:07:19;13.50;;;5.43;;
7917;SDS011;4004;42.624;23.386;2022-10-26T03:09:46;14.83;;;6.20;;
7917;SDS011;4004;42.624;23.386;2022-10-26T03:12:13;10.87;;;5.67;;
7917;SDS011;4004;42.624;23.386;2022-10-26T03:14:40;9.60;;;5.67;;
7917;SDS011;4004;42.624;23.386;2022-10-26T03:17:07;13.87;;;5.13;;
7917;SDS011;4004;42.624;23.386;2022-10-26T03:19:34;10.03;;;4.90;;
7917;SDS011;4004;42.624;23.386;2022-10-26T03:22:02;16.17;;;5.37;;
7917;SDS011;4004;42.624;23.386;2022-10-26T03:24:28;11.37;;;5.20;;
7917;SDS011;4004;42.624;23.386;2022-10-26T03:26:55;13.97;;;5.63;;
7917;SDS011;4004;42.624;23.386;2022-10-26T03:29:22;13.63;;;5.37;;
7917;SDS011;4004;42.624;23.386;2022-10-26T03:31:49;16.33;;;6.67;;
7917;SDS011;4004;42.624;23.386;2022-10-26T03:34:18;10.23;;;5.70;;
7917;SDS011;4004;42.624;23.386;2022-10-26T03:36:45;14.80;;;5.60;;
7917;SDS011;4004;42.624;23.386;2022-10-26T03:39:13;13.33;;;6.20;;
7917;SDS011;4004;42.624;23.386;2022-10-26T03:41:40;18.23;;;7.80;;
7917;SDS011;4004;42.624;23.386;2022-10-26T03:44:06;13.63;;;6.60;;
7917;SDS011;4004;42.624;23.386;2022-10-26T03:46:33;13.77;;;7.00;;
7917;SDS011;4004;42.624;23.386;2022-10-26T03:49:00;13.80;;;6.70;;
7917;SDS011;4004;42.624;23.386;2022-10-26T03:51:27;17.13;;;7.77;;
7917;SDS011;4004;42.624;23.386;2022-10-26T03:53:53;8.00;;;5.80;;
7917;SDS011;4004;42.624;23.386;2022-10-26T03:56:21;17.13;;;8.20;;
7917;SDS011;4004;42.624;23.386;2022-10-26T03:58:48;12.43;;;6.67;;
7917;SDS011;4004;42.624;23.386;2022-10-26T04:01:15;12.97;;;6.37;;
7917;SDS011;4004;42.624;23.386;2022-10-26T04:03:42;17.27;;;7.83;;
7917;SDS011;4004;42.624;23.386;2022-10-26T04:06:08;19.47;;;7.37;;
7917;SDS011;4004;42.624;23.386;2022-10-26T04:08:35;15.27;;;6.60;;
7917;SDS011;4004;42.624;23.386;2022-10-26T04:11:02;13.03;;;6.00;;
7917;SDS011;4004;42.624;23.386;2022-10-26T04:13:30;14.60;;;6.73;;
7917;SDS011;4004;42.624;23.386;2022-10-26T04:15:57;15.03;;;6.10;;
7917;SDS011;4004;42.624;23.386;2022-10-26T04:18:24;12.00;;;6.50;;
7917;SDS011;4004;42.624;23.386;2022-10-26T04:20:50;15.47;;;6.33;;
7917;SDS011;4004;42.624;23.386;2022-10-26T04:23:17;16.87;;;6.40;;
7917;SDS011;4004;42.624;23.386;2022-10-26T04:25:45;14.20;;;6.80;;
7917;SDS011;4004;42.624;23.386;2022-10-26T04:28:12;25.30;;;7.20;;
7917;SDS011;4004;42.624;23.386;2022-10-26T04:30:41;17.33;;;7.17;;
7917;SDS011;4004;42.624;23.386;2022-10-26T04:33:07;13.27;;;6.57;;
7917;SDS011;4004;42.624;23.386;2022-10-26T04:35:34;18.93;;;7.30;;
7917;SDS011;4004;42.624;23.386;2022-10-26T04:38:03;11.53;;;7.20;;
7917;SDS011;4004;42.624;23.386;2022-10-26T04:40:32;17.17;;;6.90;;
7917;SDS011;4004;42.624;23.386;2022-10-26T04:43:00;11.70;;;7.13;;
7917;SDS011;4004;42.624;23.386;2022-10-26T04:45:27;14.27;;;6.83;;
7917;SDS011;4004;42.624;23.386;2022-10-26T04:47:59;22.77;;;7.97;;
7917;SDS011;4004;42.624;23.386;2022-10-26T04:50:26;20.53;;;7.33;;
7917;SDS011;4004;42.624;23.386;2022-10-26T04:52:53;38.07;;;13.83;;
7917;SDS011;4004;42.624;23.386;2022-10-26T04:55:20;68.40;;;45.30;;
7917;SDS011;4004;42.624;23.386;2022-10-26T04:57:47;29.60;;;12.20;;
7917;SDS011;4004;42.624;23.386;2022-10-26T05:00:14;20.77;;;7.97;;
7917;SDS011;4004;42.624;23.386;2022-10-26T05:02:40;20.93;;;8.00;;
7917;SDS011;4004;42.624;23.386;2022-10-26T05:05:09;21.03;;;8.50;;
7917;SDS011;4004;42.624;23.386;2022-10-26T05:07:36;27.13;;;9.70;;
7917;SDS011;4004;42.624;23.386;2022-10-26T05:10:03;22.17;;;9.40;;
7917;SDS011;4004;42.624;23.386;2022-10-26T05:12:30;25.83;;;9.40;;
7917;SDS011;4004;42.624;23.386;2022-10-26T05:14:57;27.90;;;9.00;;
7917;SDS011;4004;42.624;23.386;2022-10-26T05:17:24;19.73;;;8.33;;
7917;SDS011;4004;42.624;23.386;2022-10-26T05:19:51;28.17;;;8.70;;
7917;SDS011;4004;42.624;23.386;2022-10-26T05:22:21;29.43;;;9.87;;
7917;SDS011;4004;42.624;23.386;2022-10-26T05:24:49;22.63;;;7.80;;
7917;SDS011;4004;42.624;23.386;2022-10-26T05:27:15;17.70;;;7.67;;
7917;SDS011;4004;42.624;23.386;2022-10-26T05:29:42;20.17;;;6.23;;
7917;SDS011;4004;42.624;23.386;2022-10-26T05:32:09;17.10;;;6.63;;
7917;SDS011;4004;42.624;23.386;2022-10-26T05:34:36;20.40;;;7.30;;
7917;SDS011;4004;42.624;23.386;2022-10-26T05:37:02;30.17;;;7.60;;
7917;SDS011;4004;42.624;23.386;2022-10-26T05:39:30;23.17;;;7.37;;
7917;SDS011;4004;42.624;23.386;2022-10-26T05:41:57;20.33;;;7.53;;
7917;SDS011;4004;42.624;23.386;2022-10-26T05:44:24;25.73;;;7.83;;
7917;SDS011;4004;42.624;23.386;2022-10-26T05:46:51;26.67;;;7.13;;
7917;SDS011;4004;42.624;23.386;2022-10-26T05:49:18;23.63;;;7.40;;
7917;SDS011;4004;42.624;23.386;2022-10-26T05:51:45;14.53;;;5.33;;
7917;SDS011;4004;42.624;23.386;2022-10-26T05:54:11;17.53;;;6.17;;
7917;SDS011;4004;42.624;23.386;2022-10-26T05:56:40;26.27;;;6.50;;
7917;SDS011;4004;42.624;23.386;2022-10-26T05:59:09;33.90;;;7.60;;
7917;SDS011;4004;42.624;23.386;2022-10-26T06:01:43;27.43;;;7.00;;
7917;SDS011;4004;42.624;23.386;2022-10-26T06:04:23;19.60;;;7.20;;
7917;SDS011;4004;42.624;23.386;2022-10-26T06:06:56;14.27;;;5.40;;
7917;SDS011;4004;42.624;23.386;2022-10-26T06:09:24;19.27;;;4.97;;
7917;SDS011;4004;42.624;23.386;2022-10-26T06:11:53;24.47;;;6.33;;
7917;SDS011;4004;42.624;23.386;2022-10-26T06:14:20;13.37;;;4.33;;
7917;SDS011;4004;42.624;23.386;2022-10-26T06:16:54;18.47;;;5.27;;
7917;SDS011;4004;42.624;23.386;2022-10-26T06:19:34;16.17;;;5.57;;
7917;SDS011;4004;42.624;23.386;2022-10-26T06:22:15;25.43;;;6.20;;
7917;SDS011;4004;42.624;23.386;2022-10-26T06:24:53;16.90;;;5.60;;
7917;SDS011;4004;42.624;23.386;2022-10-26T06:27:32;14.47;;;5.70;;
7917;SDS011;4004;42.624;23.386;2022-10-26T06:30:07;22.50;;;7.00;;
7917;SDS011;4004;42.624;23.386;2022-10-26T06:32:36;14.90;;;5.77;;
7917;SDS011;4004;42.624;23.386;2022-10-26T06:35:08;24.70;;;6.40;;
7917;SDS011;4004;42.624;23.386;2022-10-26T06:37:45;13.83;;;5.83;;
7917;SDS011;4004;42.624;23.386;2022-10-26T06:40:13;16.97;;;6.70;;
7917;SDS011;4004;42.624;23.386;2022-10-26T06:42:43;22.90;;;6.63;;
7917;SDS011;4004;42.624;23.386;2022-10-26T06:45:11;24.07;;;6.77;;
7917;SDS011;4004;42.624;23.386;2022-10-26T06:47:40;13.40;;;6.53;;
7917;SDS011;4004;42.624;23.386;2022-10-26T06:50:18;19.10;;;6.87;;
7917;SDS011;4004;42.624;23.386;2022-10-26T06:53:04;13.70;;;6.10;;
7917;SDS011;4004;42.624;23.386;2022-10-26T06:55:41;12.40;;;5.30;;
7917;SDS011;4004;42.624;23.386;2022-10-26T06:58:12;11.23;;;5.47;;
7917;SDS011;4004;42.624;23.386;2022-10-26T07:00:42;12.50;;;6.57;;
7917;SDS011;4004;42.624;23.386;2022-10-26T07:03:11;17.50;;;6.37;;
7917;SDS011;4004;42.624;23.386;2022-10-26T07:05:38;20.23;;;6.70;;
7917;SDS011;4004;42.624;23.386;2022-10-26T07:08:05;17.57;;;6.50;;
7917;SDS011;4004;42.624;23.386;2022-10-26T07:10:32;21.07;;;6.93;;
7917;SDS011;4004;42.624;23.386;2022-10-26T07:13:03;16.13;;;8.23;;
7917;SDS011;4004;42.624;23.386;2022-10-26T07:15:31;17.30;;;7.93;;
7917;SDS011;4004;42.624;23.386;2022-10-26T07:17:58;15.13;;;8.03;;
7917;SDS011;4004;42.624;23.386;2022-10-26T07:20:24;19.40;;;7.40;;
7917;SDS011;4004;42.624;23.386;2022-10-26T07:22:51;12.10;;;6.67;;
7917;SDS011;4004;42.624;23.386;2022-10-26T07:25:19;16.00;;;6.23;;
7917;SDS011;4004;42.624;23.386;2022-10-26T07:27:46;12.03;;;6.70;;
7917;SDS011;4004;42.624;23.386;2022-10-26T07:30:13;11.37;;;5.80;;
7917;SDS011;4004;42.624;23.386;2022-10-26T07:32:41;15.30;;;5.30;;
7917;SDS011;4004;42.624;23.386;2022-10-26T07:35:09;7.80;;;5.47;;
7917;SDS011;4004;42.624;23.386;2022-10-26T07:37:36;10.90;;;4.83;;
7917;SDS011;4004;42.624;23.386;2022-10-26T07:40:03;11.23;;;4.40;;
7917;SDS011;4004;42.624;23.386;2022-10-26T07:42:30;9.17;;;5.20;;
7917;SDS011;4004;42.624;23.386;2022-10-26T07:44:57;10.10;;;5.20;;
7917;SDS011;4004;42.624;23.386;2022-10-26T07:47:24;10.33;;;4.97;;
7917;SDS011;4004;42.624;23.386;2022-10-26T07:49:52;6.80;;;4.33;;
7917;SDS011;4004;42.624;23.386;2022-10-26T07:52:19;6.97;;;4.97;;
7917;SDS011;4004;42.624;23.386;2022-10-26T07:54:45;9.53;;;5.10;;
7917;SDS011;4004;42.624;23.386;2022-10-26T07:57:12;6.70;;;4.67;;
7917;SDS011;4004;42.624;23.386;2022-10-26T07:59:41;7.60;;;4.70;;
7917;SDS011;4004;42.624;23.386;2022-10-26T08:02:08;10.97;;;4.53;;
7917;SDS011;4004;42.624;23.386;2022-10-26T08:04:34;10.20;;;4.43;;
7917;SDS011;4004;42.624;23.386;2022-10-26T08:07:03;11.77;;;4.43;;
7917;SDS011;4004;42.624;23.386;2022-10-26T08:09:29;8.97;;;4.50;;
7917;SDS011;4004;42.624;23.386;2022-10-26T08:11:56;12.70;;;4.70;;
7917;SDS011;4004;42.624;23.386;2022-10-26T08:14:23;19.60;;;5.40;;
7917;SDS011;4004;42.624;23.386;2022-10-26T08:16:50;16.03;;;4.63;;
7917;SDS011;4004;42.624;23.386;2022-10-26T08:19:16;8.20;;;4.13;;
7917;SDS011;4004;42.624;23.386;2022-10-26T08:21:43;20.37;;;5.13;;
7917;SDS011;4004;42.624;23.386;2022-10-26T08:24:11;11.67;;;4.50;;
7917;SDS011;4004;42.624;23.386;2022-10-26T08:26:38;10.20;;;4.57;;
7917;SDS011;4004;42.624;23.386;2022-10-26T08:29:05;10.37;;;4.57;;
7917;SDS011;4004;42.624;23.386;2022-10-26T08:31:31;11.83;;;4.90;;
7917;SDS011;4004;42.624;23.386;2022-10-26T08:33:58;16.05;;;4.65;;
7917;SDS011;4004;42.624;23.386;2022-10-26T08:36:26;13.00;;;4.90;;
7917;SDS011;4004;42.624;23.386;2022-10-26T08:38:53;15.33;;;5.57;;
7917;SDS011;4004;42.624;23.386;2022-10-26T08:41:23;13.80;;;5.27;;
7917;SDS011;4004;42.624;23.386;2022-10-26T08:43:59;13.60;;;4.83;;
7917;SDS011;4004;42.624;23.386;2022-10-26T08:46:31;10.27;;;4.83;;
7917;SDS011;4004;42.624;23.386;2022-10-26T08:49:03;12.40;;;5.13;;
7917;SDS011;4004;42.624;23.386;2022-10-26T08:51:41;14.60;;;4.90;;
7917;SDS011;4004;42.624;23.386;2022-10-26T08:54:09;8.50;;;3.90;;
7917;SDS011;4004;42.624;23.386;2022-10-26T08:56:41;12.53;;;4.40;;
7917;SDS011;4004;42.624;23.386;2022-10-26T08:59:23;12.47;;;4.77;;
7917;SDS011;4004;42.624;23.386;2022-10-26T09:01:57;11.83;;;4.30;;
7917;SDS011;4004;42.624;23.386;2022-10-26T09:04:26;7.80;;;4.33;;
7917;SDS011;4004;42.624;23.386;2022-10-26T09:06:55;9.90;;;3.80;;
7917;SDS011;4004;42.624;23.386;2022-10-26T09:09:33;9.27;;;3.37;;
7917;SDS011;4004;42.624;23.386;2022-10-26T09:12:13;8.07;;;3.60;;
7917;SDS011;4004;42.624;23.386;2022-10-26T09:14:55;9.43;;;3.27;;
7917;SDS011;4004;42.624;23.386;2022-10-26T09:17:32;13.13;;;3.60;;
7917;SDS011;4004;42.624;23.386;2022-10-26T09:20:18;11.30;;;3.73;;
7917;SDS011;4004;42.624;23.386;2022-10-26T09:22:59;9.50;;;3.43;;
7917;SDS011;4004;42.624;23.386;2022-10-26T09:25:33;7.13;;;3.77;;
7917;SDS011;4004;42.624;23.386;2022-10-26T09:28:08;6.17;;;2.93;;
7917;SDS011;4004;42.624;23.386;2022-10-26T09:30:40;6.00;;;2.80;;
7917;SDS011;4004;42.624;23.386;2022-10-26T09:33:10;6.87;;;3.63;;
7917;SDS011;4004;42.624;23.386;2022-10-26T09:35:42;8.13;;;3.47;;
7917;SDS011;4004;42.624;23.386;2022-10-26T09:38:12;7.93;;;3.27;;
7917;SDS011;4004;42.624;23.386;2022-10-26T09:40:46;8.07;;;3.23;;
7917;SDS011;4004;42.624;23.386;2022-10-26T09:43:22;8.03;;;3.17;;
7917;SDS011;4004;42.624;23.386;2022-10-26T09:45:52;8.37;;;3.43;;
7917;SDS011;4004;42.624;23.386;2022-10-26T09:48:20;9.07;;;3.57;;
7917;SDS011;4004;42.624;23.386;2022-10-26T09:50:52;7.57;;;3.73;;
7917;SDS011;4004;42.624;23.386;2022-10-26T09:53:21;24.77;;;5.23;;
7917;SDS011;4004;42.624;23.386;2022-10-26T09:55:48;12.23;;;4.00;;
7917;SDS011;4004;42.624;23.386;2022-10-26T09:58:28;7.50;;;3.30;;
7917;SDS011;4004;42.624;23.386;2022-10-26T10:00:58;17.33;;;3.57;;
7917;SDS011;4004;42.624;23.386;2022-10-26T10:03:25;15.90;;;5.50;;
7917;SDS011;4004;42.624;23.386;2022-10-26T10:05:53;12.10;;;6.30;;
7917;SDS011;4004;42.624;23.386;2022-10-26T10:08:41;7.10;;;3.90;;
7917;SDS011;4004;42.624;23.386;2022-10-26T10:11:08;9.00;;;3.97;;
7917;SDS011;4004;42.624;23.386;2022-10-26T10:13:38;5.33;;;3.50;;
7917;SDS011;4004;42.624;23.386;2022-10-26T10:16:09;13.23;;;3.93;;
7917;SDS011;4004;42.624;23.386;2022-10-26T10:18:38;7.80;;;3.27;;
7917;SDS011;4004;42.624;23.386;2022-10-26T10:21:06;8.87;;;3.50;;
7917;SDS011;4004;42.624;23.386;2022-10-26T10:23:35;6.10;;;3.40;;
7917;SDS011;4004;42.624;23.386;2022-10-26T10:26:04;9.43;;;2.97;;
7917;SDS011;4004;42.624;23.386;2022-10-26T10:28:32;8.33;;;3.17;;
7917;SDS011;4004;42.624;23.386;2022-10-26T10:31:02;9.23;;;3.43;;
7917;SDS011;4004;42.624;23.386;2022-10-26T10:33:37;6.87;;;3.20;;
7917;SDS011;4004;42.624;23.386;2022-10-26T10:36:07;5.67;;;2.70;;
7917;SDS011;4004;42.624;23.386;2022-10-26T10:38:37;8.17;;;3.43;;
7917;SDS011;4004;42.624;23.386;2022-10-26T10:41:05;6.43;;;2.80;;
7917;SDS011;4004;42.624;23.386;2022-10-26T10:43:48;8.07;;;3.43;;
7917;SDS011;4004;42.624;23.386;2022-10-26T10:46:21;7.50;;;3.03;;
7917;SDS011;4004;42.624;23.386;2022-10-26T10:48:52;4.13;;;2.70;;
7917;SDS011;4004;42.624;23.386;2022-10-26T10:51:25;7.20;;;2.87;;
7917;SDS011;4004;42.624;23.386;2022-10-26T10:53:53;10.37;;;4.27;;
7917;SDS011;4004;42.624;23.386;2022-10-26T10:59:14;9.73;;;2.77;;
7917;SDS011;4004;42.624;23.386;2022-10-26T11:02:00;8.27;;;3.07;;
7917;SDS011;4004;42.624;23.386;2022-10-26T11:04:51;8.87;;;3.03;;
7917;SDS011;4004;42.624;23.386;2022-10-26T11:07:31;7.73;;;3.00;;
7917;SDS011;4004;42.624;23.386;2022-10-26T11:10:12;5.83;;;2.80;;
7917;SDS011;4004;42.624;23.386;2022-10-26T11:12:44;4.73;;;2.60;;
7917;SDS011;4004;42.624;23.386;2022-10-26T11:15:16;12.83;;;2.97;;
7917;SDS011;4004;42.624;23.386;2022-10-26T11:17:49;6.53;;;2.63;;
7917;SDS011;4004;42.624;23.386;2022-10-26T11:20:21;8.10;;;2.73;;
7917;SDS011;4004;42.624;23.386;2022-10-26T11:22:57;6.10;;;2.87;;
7917;SDS011;4004;42.624;23.386;2022-10-26T11:25:32;8.87;;;3.27;;
7917;SDS011;4004;42.624;23.386;2022-10-26T11:28:03;7.70;;;3.13;;
7917;SDS011;4004;42.624;23.386;2022-10-26T11:30:36;11.03;;;2.90;;
7917;SDS011;4004;42.624;23.386;2022-10-26T11:33:13;14.63;;;3.40;;
7917;SDS011;4004;42.624;23.386;2022-10-26T11:35:45;7.60;;;3.37;;
7917;SDS011;4004;42.624;23.386;2022-10-26T11:38:21;12.57;;;3.60;;
7917;SDS011;4004;42.624;23.386;2022-10-26T11:40:52;5.53;;;3.13;;
7917;SDS011;4004;42.624;23.386;2022-10-26T11:43:27;7.10;;;3.63;;
7917;SDS011;4004;42.624;23.386;2022-10-26T11:46:01;9.50;;;3.13;;
7917;SDS011;4004;42.624;23.386;2022-10-26T11:48:34;9.73;;;3.27;;
7917;SDS011;4004;42.624;23.386;2022-10-26T11:51:06;11.53;;;4.30;;
7917;SDS011;4004;42.624;23.386;2022-10-26T11:53:42;8.07;;;3.13;;
7917;SDS011;4004;42.624;23.386;2022-10-26T11:56:12;6.90;;;2.80;;
7917;SDS011;4004;42.624;23.386;2022-10-26T11:58:44;3.77;;;2.50;;
7917;SDS011;4004;42.624;23.386;2022-10-26T12:01:12;6.57;;;2.93;;
7917;SDS011;4004;42.624;23.386;2022-10-26T12:03:42;8.07;;;3.00;;
7917;SDS011;4004;42.624;23.386;2022-10-26T12:06:12;5.67;;;2.70;;
7917;SDS011;4004;42.624;23.386;2022-10-26T12:08:45;6.80;;;2.43;;
7917;SDS011;4004;42.624;23.386;2022-10-26T12:11:20;6.20;;;2.47;;
7917;SDS011;4004;42.624;23.386;2022-10-26T12:14:00;5.27;;;2.20;;
7917;SDS011;4004;42.624;23.386;2022-10-26T12:16:40;2.53;;;1.73;;
7917;SDS011;4004;42.624;23.386;2022-10-26T12:19:17;2.07;;;1.87;;
7917;SDS011;4004;42.624;23.386;2022-10-26T12:21:49;7.80;;;2.10;;
7917;SDS011;4004;42.624;23.386;2022-10-26T12:24:26;8.27;;;2.20;;
7917;SDS011;4004;42.624;23.386;2022-10-26T12:26:57;5.40;;;2.30;;
7917;SDS011;4004;42.624;23.386;2022-10-26T12:29:35;2.33;;;1.77;;
7917;SDS011;4004;42.624;23.386;2022-10-26T12:35:30;2.90;;;1.47;;
7917;SDS011;4004;42.624;23.386;2022-10-26T12:41:20;6.40;;;1.80;;
7917;SDS011;4004;42.624;23.386;2022-10-26T12:43:54;1.70;;;1.30;;
7917;SDS011;4004;42.624;23.386;2022-10-26T12:46:36;6.00;;;1.90;;
7917;SDS011;4004;42.624;23.386;2022-10-26T12:49:10;3.67;;;1.30;;
7917;SDS011;4004;42.624;23.386;2022-10-26T12:52:24;4.20;;;1.27;;
7917;SDS011;4004;42.624;23.386;2022-10-26T13:01:13;6.13;;;2.50;;
7917;SDS011;4004;42.624;23.386;2022-10-26T13:07:18;3.97;;;1.33;;
7917;SDS011;4004;42.624;23.386;2022-10-26T13:09:59;5.87;;;2.00;;
7917;SDS011;4004;42.624;23.386;2022-10-26T13:12:34;2.63;;;2.07;;
7917;SDS011;4004;42.624;23.386;2022-10-26T13:15:04;9.83;;;1.93;;
7917;SDS011;4004;42.624;23.386;2022-10-26T13:17:51;8.70;;;1.60;;
7917;SDS011;4004;42.624;23.386;2022-10-26T13:20:20;3.47;;;1.70;;
7917;SDS011;4004;42.624;23.386;2022-10-26T13:22:47;5.63;;;1.73;;
7917;SDS011;4004;42.624;23.386;2022-10-26T13:25:20;1.97;;;1.27;;
7917;SDS011;4004;42.624;23.386;2022-10-26T13:28:00;3.70;;;1.43;;
7917;SDS011;4004;42.624;23.386;2022-10-26T13:33:13;3.43;;;1.27;;
7917;SDS011;4004;42.624;23.386;2022-10-26T13:35:45;4.90;;;1.57;;
7917;SDS011;4004;42.624;23.386;2022-10-26T13:38:14;2.73;;;1.40;;
7917;SDS011;4004;42.624;23.386;2022-10-26T13:40:46;5.60;;;1.30;;
7917;SDS011;4004;42.624;23.386;2022-10-26T13:43:15;2.97;;;1.53;;
7917;SDS011;4004;42.624;23.386;2022-10-26T13:45:48;3.57;;;1.33;;
7917;SDS011;4004;42.624;23.386;2022-10-26T13:48:22;1.80;;;1.20;;
7917;SDS011;4004;42.624;23.386;2022-10-26T13:50:58;5.37;;;1.73;;
7917;SDS011;4004;42.624;23.386;2022-10-26T13:53:30;11.03;;;1.50;;
7917;SDS011;4004;42.624;23.386;2022-10-26T13:56:08;5.53;;;1.50;;
7917;SDS011;4004;42.624;23.386;2022-10-26T13:58:45;10.10;;;1.60;;
7917;SDS011;4004;42.624;23.386;2022-10-26T14:01:16;3.47;;;1.40;;
7917;SDS011;4004;42.624;23.386;2022-10-26T14:03:47;10.67;;;3.37;;
7917;SDS011;4004;42.624;23.386;2022-10-26T14:06:15;7.40;;;2.17;;
7917;SDS011;4004;42.624;23.386;2022-10-26T14:08:45;7.27;;;1.50;;
7917;SDS011;4004;42.624;23.386;2022-10-26T14:11:15;9.27;;;1.80;;
7917;SDS011;4004;42.624;23.386;2022-10-26T14:13:45;5.17;;;1.90;;
7917;SDS011;4004;42.624;23.386;2022-10-26T14:16:14;8.93;;;2.43;;
7917;SDS011;4004;42.624;23.386;2022-10-26T14:18:43;5.20;;;3.00;;
7917;SDS011;4004;42.624;23.386;2022-10-26T14:21:12;5.90;;;2.40;;
7917;SDS011;4004;42.624;23.386;2022-10-26T14:23:44;9.17;;;3.30;;
7917;SDS011;4004;42.624;23.386;2022-10-26T14:26:18;10.47;;;2.30;;
7917;SDS011;4004;42.624;23.386;2022-10-26T14:28:47;8.77;;;1.70;;
7917;SDS011;4004;42.624;23.386;2022-10-26T14:31:20;6.83;;;1.60;;
7917;SDS011;4004;42.624;23.386;2022-10-26T14:33:48;5.13;;;1.60;;
7917;SDS011;4004;42.624;23.386;2022-10-26T14:36:15;5.53;;;1.70;;
7917;SDS011;4004;42.624;23.386;2022-10-26T14:38:45;8.77;;;1.90;;
7917;SDS011;4004;42.624;23.386;2022-10-26T14:41:16;8.37;;;1.80;;
7917;SDS011;4004;42.624;23.386;2022-10-26T14:43:44;9.10;;;2.17;;
7917;SDS011;4004;42.624;23.386;2022-10-26T14:46:12;9.07;;;2.47;;
7917;SDS011;4004;42.624;23.386;2022-10-26T14:48:48;13.57;;;2.77;;
7917;SDS011;4004;42.624;23.386;2022-10-26T14:51:18;11.73;;;2.30;;
7917;SDS011;4004;42.624;23.386;2022-10-26T14:53:47;12.57;;;2.40;;
7917;SDS011;4004;42.624;23.386;2022-10-26T14:56:17;8.03;;;2.40;;
7917;SDS011;4004;42.624;23.386;2022-10-26T14:58:48;8.83;;;2.30;;
7917;SDS011;4004;42.624;23.386;2022-10-26T15:01:29;11.53;;;3.23;;
7917;SDS011;4004;42.624;23.386;2022-10-26T15:03:58;10.67;;;2.40;;
7917;SDS011;4004;42.624;23.386;2022-10-26T15:06:39;12.07;;;4.40;;
7917;SDS011;4004;42.624;23.386;2022-10-26T15:11:56;10.83;;;2.73;;
7917;SDS011;4004;42.624;23.386;2022-10-26T15:14:24;14.70;;;4.10;;
7917;SDS011;4004;42.624;23.386;2022-10-26T15:16:52;12.80;;;4.03;;
7917;SDS011;4004;42.624;23.386;2022-10-26T15:19:20;13.90;;;3.97;;
7917;SDS011;4004;42.624;23.386;2022-10-26T15:21:48;21.77;;;4.37;;
7917;SDS011;4004;42.624;23.386;2022-10-26T15:24:23;29.27;;;4.63;;
7917;SDS011;4004;42.624;23.386;2022-10-26T15:26:54;27.37;;;5.03;;
7917;SDS011;4004;42.624;23.386;2022-10-26T15:29:38;22.83;;;5.13;;
7917;SDS011;4004;42.624;23.386;2022-10-26T15:32:17;21.00;;;3.97;;
7917;SDS011;4004;42.624;23.386;2022-10-26T15:34:47;18.33;;;3.57;;
7917;SDS011;4004;42.624;23.386;2022-10-26T15:37:15;9.07;;;3.40;;
7917;SDS011;4004;42.624;23.386;2022-10-26T15:39:42;16.67;;;3.87;;
7917;SDS011;4004;42.624;23.386;2022-10-26T15:42:09;39.63;;;5.93;;